KEDE

Northeastern Regional Airport

Edenton, North Carolina, USA
METAR KEDE 161025Z AUTO 30003KT 10SM CLR 01/M03 A3020 RMK AO2 T00081030
Observed Flight Rules
Dec-16 @ 10:25 UTC (35 minutes ago) Visual Flight Rules
Wind Visibility Clouds
300° at 3 knots 10 miles
  • Clear skies
Temperatures Readings
Current 1°C / 34°F
Dewpoint -3°C / 27°F
Humidity 75%
Altimeter 30.2" Hg
Pressure 1023 hPa
Elevation 6
METAR KEDE 161025Z AUTO 30003KT 10SM CLR 01/M03 A3020 RMK AO2 T00081030
Observed Flight Rules
Dec-16 @ 10:25 UTC
(35 minutes ago)
VFR
Wind Visibility
300° at 3 knots 10 miles
Clouds
  • Clear skies
Temperature Dewpoint
1°C / 34°F -3°C / 27°F
Humidity Altimeter Pressure
75% 30.2" Hg 1023 hPa